createdAt,value
2018-03-22T00:02:08.196Z,96829.59
2018-03-22T00:04:35.747Z,96827.11
2018-03-22T00:07:03.283Z,96828.36
2018-03-22T00:09:30.821Z,96825.87
2018-03-22T00:11:58.383Z,96832.94
2018-03-22T00:14:26.005Z,96827.95
2018-03-22T00:16:53.555Z,96824.20
2018-03-22T00:19:21.146Z,96821.72
2018-03-22T00:21:48.728Z,96832.50
2018-03-22T00:24:16.289Z,96823.79
2018-03-22T00:26:43.873Z,96820.05
2018-03-22T00:29:11.453Z,96818.80
2018-03-22T00:31:39.078Z,96815.89
2018-03-22T00:34:06.635Z,96808.42
2018-03-22T00:36:34.227Z,96809.27
2018-03-22T00:39:01.759Z,96810.52
2018-03-22T00:41:29.266Z,96808.84
2018-03-22T00:43:56.802Z,96804.70
2018-03-22T00:46:24.377Z,96794.30
2018-03-22T00:48:51.932Z,96801.80
2018-03-22T00:51:19.482Z,96804.30
2018-03-22T00:53:47.074Z,96796.39
2018-03-22T00:56:14.668Z,96792.25
2018-03-22T00:58:42.295Z,96789.76
2018-03-22T01:01:10.016Z,96775.20
2018-03-22T01:03:37.576Z,96784.77
2018-03-22T01:06:05.166Z,96773.53
2018-03-22T01:08:32.747Z,96770.23
2018-03-22T01:11:00.305Z,96762.76
2018-03-22T01:13:27.917Z,96762.75
2018-03-22T01:15:55.485Z,96757.76
2018-03-22T01:18:23.078Z,96756.11
2018-03-22T01:20:50.650Z,96755.27
2018-03-22T01:23:18.192Z,96749.88
2018-03-22T01:25:45.764Z,96744.06
2018-03-22T01:28:13.345Z,96743.65
2018-03-22T01:30:42.722Z,96737.00
2018-03-22T01:33:10.275Z,96738.27
2018-03-22T01:35:37.860Z,96737.03
2018-03-22T01:38:05.433Z,96729.13
2018-03-22T01:40:32.994Z,96729.55
2018-03-22T01:43:00.557Z,96730.36
2018-03-22T01:45:28.088Z,96724.15
2018-03-22T01:47:55.672Z,96723.72
2018-03-22T01:50:23.228Z,96723.34
2018-03-22T01:53:02.430Z,96716.28
2018-03-22T01:55:29.969Z,96718.36
2018-03-22T01:57:57.529Z,96714.63
2018-03-22T02:00:25.087Z,96704.67
2018-03-22T02:02:52.698Z,96710.47
2018-03-22T02:05:20.279Z,96703.84
2018-03-22T02:07:47.825Z,96699.69
2018-03-22T02:10:15.419Z,96699.69
2018-03-22T02:12:42.984Z,96698.86
2018-03-22T02:15:10.554Z,96696.36
2018-03-22T02:17:38.112Z,96689.72
2018-03-22T02:20:05.682Z,96693.06
2018-03-22T02:22:33.226Z,96698.88
2018-03-22T02:25:00.808Z,96694.31
2018-03-22T02:27:28.387Z,96688.92
2018-03-22T02:29:55.987Z,96689.70
2018-03-22T02:32:24.756Z,96687.65
2018-03-22T02:34:52.302Z,96683.92
2018-03-22T02:37:19.887Z,96678.09
2018-03-22T02:39:47.442Z,96678.94
2018-03-22T02:42:15.352Z,96682.28
2018-03-22T02:44:43.330Z,96684.36
2018-03-22T02:47:11.189Z,96678.57
2018-03-22T02:49:38.729Z,96679.83
2018-03-22T02:52:06.286Z,96670.68
2018-03-22T02:54:33.829Z,96671.53
2018-03-22T02:57:01.402Z,96661.15
2018-03-22T02:59:28.953Z,96659.08
2018-03-22T03:01:56.522Z,96654.92
2018-03-22T03:04:24.043Z,96652.41
2018-03-22T03:06:51.559Z,96650.73
2018-03-22T03:09:19.085Z,96644.94
2018-03-22T03:11:46.597Z,96643.27
2018-03-22T03:14:14.130Z,96639.55
2018-03-22T03:16:41.639Z,96637.88
2018-03-22T03:19:09.164Z,96634.58
2018-03-22T03:21:36.729Z,96638.72
2018-03-22T03:24:04.276Z,96630.84
2018-03-22T03:26:31.831Z,96632.47
2018-03-22T03:28:59.377Z,96627.48
2018-03-22T03:31:26.945Z,96629.58
2018-03-22T03:33:54.512Z,96627.08
2018-03-22T03:36:22.057Z,96625.80
2018-03-22T03:38:49.637Z,96617.91
2018-03-22T03:41:17.195Z,96612.52
2018-03-22T03:43:44.751Z,96611.69
2018-03-22T03:46:12.315Z,96605.48
2018-03-22T03:48:39.850Z,96604.66
2018-03-22T03:51:07.384Z,96605.92
2018-03-22T03:53:34.940Z,96602.16
2018-03-22T03:56:03.223Z,96596.70
2018-03-22T03:58:30.779Z,96597.14
2018-03-22T04:00:58.349Z,96596.32
2018-03-22T04:03:25.893Z,96590.93
2018-03-22T04:05:53.451Z,96596.70
2018-03-22T04:08:21.017Z,96594.22
2018-03-22T04:10:48.566Z,96590.10
2018-03-22T04:13:16.117Z,96587.63
2018-03-22T04:15:43.679Z,96582.62
2018-03-22T04:18:11.237Z,96577.60
2018-03-22T04:20:38.804Z,96577.64
2018-03-22T04:23:06.362Z,96578.48
2018-03-22T04:25:33.934Z,96572.27
2018-03-22T04:28:01.491Z,96570.97
2018-03-22T04:30:29.057Z,96564.76
2018-03-22T04:32:56.635Z,96563.13
2018-03-22T04:35:24.181Z,96565.16
2018-03-22T04:37:51.738Z,96568.07
2018-03-22T04:40:19.284Z,96556.47
2018-03-22T04:42:46.862Z,96559.38
2018-03-22T04:45:14.414Z,96554.36
2018-03-22T04:47:41.954Z,96554.39
2018-03-22T04:50:09.529Z,96552.28
2018-03-22T04:52:37.085Z,96553.12
2018-03-22T04:55:04.644Z,96550.63
2018-03-22T04:57:32.205Z,96546.47
2018-03-22T04:59:59.793Z,96544.41
2018-03-22T05:02:27.340Z,96548.98
2018-03-22T05:04:54.910Z,96545.23
2018-03-22T05:07:22.487Z,96545.64
2018-03-22T05:09:50.028Z,96539.39
2018-03-22T05:12:17.559Z,96535.60
2018-03-22T05:14:45.111Z,96533.95
2018-03-22T05:17:12.651Z,96535.63
2018-03-22T05:19:40.252Z,96539.34
2018-03-22T05:22:07.812Z,96531.83
2018-03-22T05:24:35.376Z,96532.17
2018-03-22T05:27:03.214Z,96524.25
2018-03-22T05:29:30.772Z,96523.83
2018-03-22T05:31:58.309Z,96527.17
2018-03-22T05:34:25.896Z,96520.50
2018-03-22T05:36:53.471Z,96525.02
2018-03-22T05:39:21.045Z,96522.94
2018-03-22T05:41:48.622Z,96517.10
2018-03-22T05:44:16.166Z,96519.14
2018-03-22T05:46:43.712Z,96518.22
2018-03-22T05:49:11.247Z,96514.85
2018-03-22T05:51:38.802Z,96513.09
2018-03-22T05:54:07.205Z,96495.29
2018-03-22T05:56:34.750Z,96508.77
2018-03-22T05:59:02.362Z,96504.95
2018-03-22T06:01:29.901Z,96501.95
2018-03-22T06:03:57.525Z,96503.14
2018-03-22T06:06:25.097Z,96498.92
2018-03-22T06:08:52.711Z,96497.08
2018-03-22T06:11:20.230Z,96492.33
2018-03-22T06:13:47.764Z,96489.30
2018-03-22T06:16:15.349Z,96483.39
2018-03-22T06:18:42.913Z,96484.07
2018-03-22T06:21:10.423Z,96478.83
2018-03-22T06:23:37.956Z,96479.83
2018-03-22T06:26:05.476Z,96476.69
2018-03-22T06:28:33.014Z,96472.60
2018-03-22T06:31:00.554Z,96463.81
2018-03-22T06:33:28.116Z,96459.20
2018-03-22T06:35:55.693Z,96458.53
2018-03-22T06:38:23.258Z,96463.19
2018-03-22T06:40:50.794Z,96460.03
2018-03-22T06:43:18.359Z,96450.69
2018-03-22T06:45:45.920Z,96453.94
2018-03-22T06:48:13.484Z,96457.73
2018-03-22T06:50:41.070Z,96448.28
2018-03-22T06:53:08.612Z,96453.49
2018-03-22T06:55:36.150Z,96446.48
2018-03-22T06:58:03.724Z,96447.92
2018-03-22T07:00:31.263Z,96447.17
2018-03-22T07:02:58.842Z,96443.86
2018-03-22T07:05:26.439Z,96440.09
2018-03-22T07:07:53.998Z,96439.00
2018-03-22T07:10:21.551Z,96436.37
2018-03-22T07:12:49.096Z,96437.91
2018-03-22T07:15:16.627Z,96439.22
2018-03-22T07:17:44.185Z,96438.52
2018-03-22T07:20:11.749Z,96428.16
2018-03-22T07:22:39.301Z,96431.58
2018-03-22T07:25:06.853Z,96430.83
2018-03-22T07:27:34.381Z,96424.45
2018-03-22T07:30:01.934Z,96424.91
2018-03-22T07:32:29.504Z,96421.03
2018-03-22T07:34:57.062Z,96412.20
2018-03-22T07:37:24.613Z,96412.30
2018-03-22T07:39:52.184Z,96410.20
2018-03-22T07:42:19.758Z,96412.01
2018-03-22T07:44:49.220Z,96401.52
2018-03-22T07:47:16.782Z,96402.98
2018-03-22T07:49:44.357Z,96401.04
2018-03-22T07:52:11.874Z,96399.90
2018-03-22T07:54:39.424Z,96396.55
2018-03-22T07:57:06.980Z,96392.98
2018-03-22T07:59:34.549Z,96388.59
2018-03-22T08:02:02.102Z,96387.25
2018-03-22T08:04:29.653Z,96381.86
2018-03-22T08:06:57.229Z,96384.68
2018-03-22T08:09:24.768Z,96375.88
2018-03-22T08:11:52.358Z,96370.78
2018-03-22T08:14:19.914Z,96367.93
2018-03-22T08:16:47.490Z,96358.59
2018-03-22T08:19:15.030Z,96362.83
2018-03-22T08:21:42.590Z,96357.30
2018-03-22T08:24:10.140Z,96358.73
2018-03-22T08:26:37.682Z,96353.23
2018-03-22T08:29:05.246Z,96352.05
2018-03-22T08:31:33.201Z,96347.61
2018-03-22T08:34:00.775Z,96345.45
2018-03-22T08:36:28.308Z,96345.88
2018-03-22T08:38:55.828Z,96342.16
2018-03-22T08:41:23.419Z,96335.42
2018-03-22T08:43:50.921Z,96330.84
2018-03-22T08:46:18.478Z,96332.00
2018-03-22T08:48:46.048Z,96323.69
2018-03-22T08:51:13.607Z,96314.91
2018-03-22T08:53:41.158Z,96314.09
2018-03-22T08:56:08.719Z,96309.59
2018-03-22T08:58:36.278Z,96305.89
2018-03-22T09:01:03.809Z,96297.58
2018-03-22T09:03:31.371Z,96292.54
2018-03-22T09:05:58.920Z,96291.41
2018-03-22T09:14:07.453Z,96275.09
2018-03-22T09:16:34.964Z,96275.35
2018-03-22T09:19:02.526Z,96265.66
2018-03-22T09:21:30.070Z,96267.20
2018-03-22T09:23:57.615Z,96265.40
2018-03-22T09:26:25.180Z,96252.70
2018-03-22T09:28:52.784Z,96254.17
2018-03-22T09:31:20.333Z,96261.50
2018-03-22T09:33:47.896Z,96260.72
2018-03-22T09:36:15.482Z,96259.13
2018-03-22T09:38:43.022Z,96248.84
2018-03-22T09:41:10.568Z,96248.30
2018-03-22T09:43:38.127Z,96249.00
2018-03-22T09:46:05.674Z,96239.11
2018-03-22T09:48:33.391Z,96233.48
2018-03-22T09:51:00.946Z,96234.66
2018-03-22T09:53:28.510Z,96229.52
2018-03-22T09:55:56.099Z,96223.67
2018-03-22T09:58:23.646Z,96218.88
2018-03-22T10:00:51.246Z,96218.72
2018-03-22T10:03:18.779Z,96222.00
2018-03-22T10:05:46.635Z,96216.69
2018-03-22T10:08:14.198Z,96207.19
2018-03-22T10:10:41.704Z,96201.70
2018-03-22T10:13:09.267Z,96200.83
2018-03-22T10:15:36.815Z,96196.30
2018-03-22T10:18:04.575Z,96191.02
2018-03-22T10:20:32.133Z,96185.07
2018-03-22T10:22:59.699Z,96186.12
2018-03-22T10:25:27.192Z,96182.63
2018-03-22T10:27:54.739Z,96174.45
2018-03-22T10:30:22.310Z,96174.38
2018-03-22T10:32:49.924Z,96167.05
2018-03-22T10:35:17.664Z,96160.44
2018-03-22T10:37:45.534Z,96156.88
2018-03-22T10:40:13.143Z,96148.92
2018-03-22T10:42:40.645Z,96143.94
2018-03-22T10:45:08.312Z,96146.44
2018-03-22T10:47:35.983Z,96129.80
2018-03-22T10:50:03.523Z,96128.41
2018-03-22T10:52:31.079Z,96126.45
2018-03-22T10:54:58.638Z,96118.99
2018-03-22T10:57:28.588Z,96104.84
2018-03-22T10:59:56.451Z,96118.78
2018-03-22T11:02:29.961Z,96108.83
2018-03-22T11:05:00.364Z,96116.10
2018-03-22T11:07:29.280Z,96104.34
2018-03-22T11:09:57.140Z,96094.73
2018-03-22T11:12:26.011Z,96087.95
2018-03-22T11:14:53.589Z,96093.41
2018-03-22T11:17:21.890Z,96073.03
2018-03-22T11:19:49.469Z,96072.21
2018-03-22T11:22:17.013Z,96080.66
2018-03-22T11:24:44.620Z,96074.44
2018-03-22T11:27:12.897Z,96067.23
2018-03-22T11:29:40.441Z,96058.55
2018-03-22T11:32:08.036Z,96060.06
2018-03-22T11:34:35.670Z,96056.74
2018-03-22T11:37:03.222Z,96051.77
2018-03-22T11:39:30.926Z,96043.02
2018-03-22T11:41:58.481Z,96041.56
2018-03-22T11:44:26.998Z,96024.80
2018-03-22T11:46:54.585Z,96022.53
2018-03-22T11:49:22.264Z,96025.55
2018-03-22T11:51:51.414Z,96016.94
2018-03-22T11:54:19.157Z,96011.34
2018-03-22T11:56:46.719Z,96007.90
2018-03-22T11:59:14.397Z,96001.13
2018-03-22T12:01:42.445Z,95987.19
2018-03-22T12:04:10.266Z,95995.53
2018-03-22T12:06:37.831Z,95991.52
2018-03-22T12:09:05.617Z,95945.38
2018-03-22T12:11:34.214Z,95978.31
2018-03-22T12:14:01.776Z,95968.28
2018-03-22T12:16:29.521Z,95976.11
2018-03-22T12:18:57.049Z,95977.91
2018-03-22T12:21:24.785Z,95969.59
2018-03-22T12:23:52.289Z,95955.93
2018-03-22T12:26:19.877Z,95959.02
2018-03-22T12:28:47.370Z,95955.69
2018-03-22T12:31:14.887Z,95949.29
2018-03-22T12:33:43.568Z,95948.30
2018-03-22T12:36:11.692Z,95937.91
2018-03-22T12:38:39.292Z,95934.92
2018-03-22T12:41:06.851Z,95926.87
2018-03-22T12:43:34.474Z,95918.56
2018-03-22T12:46:02.047Z,95925.05
2018-03-22T12:48:29.613Z,95923.45
2018-03-22T12:50:57.182Z,95922.16
2018-03-22T12:53:25.448Z,95917.46
2018-03-22T12:55:53.082Z,95914.66
2018-03-22T12:58:20.640Z,95912.93
2018-03-22T13:00:48.291Z,95908.16
2018-03-22T13:03:16.208Z,95905.45
2018-03-22T13:05:43.855Z,95900.75
2018-03-22T13:08:11.431Z,95898.22
2018-03-22T13:10:39.188Z,95900.14
2018-03-22T13:13:06.881Z,95893.63
2018-03-22T13:15:34.522Z,95892.91
2018-03-22T13:18:02.144Z,95888.25
2018-03-22T13:20:31.572Z,95889.25
2018-03-22T13:22:59.130Z,95880.73
2018-03-22T13:25:26.718Z,95874.73
2018-03-22T13:27:54.449Z,95877.84
2018-03-22T13:30:22.026Z,95869.90
2018-03-22T13:32:49.612Z,95860.88
2018-03-22T13:35:17.775Z,95868.08
2018-03-22T13:37:45.377Z,95863.41
2018-03-22T13:40:13.553Z,95855.89
2018-03-22T13:42:41.405Z,95857.63
2018-03-22T13:45:09.067Z,95860.64
2018-03-22T13:47:36.642Z,95856.45
2018-03-22T13:50:04.202Z,95839.86
2018-03-22T13:52:33.357Z,95837.18
2018-03-22T13:55:00.895Z,95841.45
2018-03-22T13:57:28.905Z,95836.50
2018-03-22T13:59:56.490Z,95832.74
2018-03-22T14:02:26.893Z,95837.77
2018-03-22T14:04:54.646Z,95828.75
2018-03-22T14:07:22.387Z,95819.91
2018-03-22T14:09:50.002Z,95814.75
2018-03-22T14:12:17.584Z,95803.02
2018-03-22T14:14:45.142Z,95799.09
2018-03-22T14:17:13.207Z,95799.38
2018-03-22T14:19:40.788Z,95795.19
2018-03-22T14:22:08.917Z,95787.79
2018-03-22T14:24:36.572Z,95783.73
2018-03-22T14:27:04.195Z,95785.08
2018-03-22T14:29:31.834Z,95772.48
2018-03-22T14:31:59.439Z,95768.13
2018-03-22T14:34:27.010Z,95768.72
2018-03-22T14:36:54.578Z,95763.04
2018-03-22T14:39:22.146Z,95760.63
2018-03-22T14:41:49.756Z,95761.73
2018-03-22T14:44:17.324Z,95755.95
2018-03-22T14:46:44.888Z,95754.27
2018-03-22T14:49:12.885Z,95757.76
2018-03-22T14:51:40.621Z,95751.38
2018-03-22T14:54:08.177Z,95761.64
2018-03-22T14:56:36.578Z,95750.41
2018-03-22T14:59:04.152Z,95752.73
2018-03-22T15:01:31.730Z,95743.39
2018-03-22T15:03:59.309Z,95737.77
2018-03-22T15:06:30.173Z,95742.09
2018-03-22T15:08:57.753Z,95733.66
2018-03-22T15:11:32.529Z,95731.91
2018-03-22T15:14:04.101Z,95735.41
2018-03-22T15:16:31.910Z,95728.88
2018-03-22T15:19:03.840Z,95729.62
2018-03-22T15:21:31.820Z,95729.78
2018-03-22T15:24:12.171Z,95729.27
2018-03-22T15:26:42.202Z,95731.05
2018-03-22T15:29:10.200Z,95727.92
2018-03-22T15:31:38.324Z,95725.51
2018-03-22T15:34:07.620Z,95727.53
2018-03-22T15:36:35.197Z,95727.55
2018-03-22T15:39:07.369Z,95723.13
2018-03-22T15:41:34.939Z,95722.61
2018-03-22T15:44:07.413Z,95727.06
2018-03-22T15:46:34.988Z,95724.01
2018-03-22T15:49:03.851Z,95730.53
2018-03-22T15:51:38.376Z,95726.62
2018-03-22T15:54:07.790Z,95695.09
2018-03-22T15:56:35.392Z,95722.95
2018-03-22T15:59:02.995Z,95714.81
2018-03-22T16:01:31.022Z,95715.89
2018-03-22T16:03:58.639Z,95713.75
2018-03-22T16:06:27.275Z,95701.84
2018-03-22T16:08:54.916Z,95712.95
2018-03-22T16:11:22.505Z,95707.59
2018-03-22T16:13:50.070Z,95704.94
2018-03-22T16:16:17.848Z,95705.13
2018-03-22T16:18:45.455Z,95703.99
2018-03-22T16:21:13.204Z,95710.45
2018-03-22T16:23:40.799Z,95715.30
2018-03-22T16:26:08.378Z,95704.33
2018-03-22T16:28:35.941Z,95706.89
2018-03-22T16:31:03.551Z,95705.34
2018-03-22T16:33:31.181Z,95705.95
2018-03-22T16:35:58.748Z,95704.32
2018-03-22T16:38:26.437Z,95703.83
2018-03-22T16:40:54.026Z,95695.67
2018-03-22T16:43:24.387Z,95696.28
2018-03-22T16:45:51.973Z,95693.94
2018-03-22T16:48:19.613Z,95692.28
2018-03-22T16:50:47.263Z,95689.00
2018-03-22T16:53:14.826Z,95686.80
2018-03-22T16:55:42.386Z,95679.48
2018-03-22T16:58:10.046Z,95684.14
2018-03-22T17:00:39.669Z,95683.58
2018-03-22T17:03:07.460Z,95685.16
2018-03-22T17:05:35.073Z,95682.30
2018-03-22T17:08:02.648Z,95688.00
2018-03-22T17:10:31.354Z,95681.53
2018-03-22T17:12:58.930Z,95678.98
2018-03-22T17:15:26.525Z,95680.57
2018-03-22T17:17:54.684Z,95680.63
2018-03-22T17:20:22.767Z,95684.41
2018-03-22T17:22:50.359Z,95692.13
2018-03-22T17:25:17.933Z,95685.13
2018-03-22T17:27:45.500Z,95687.78
2018-03-22T17:30:13.147Z,95689.55
2018-03-22T17:32:43.151Z,95691.66
2018-03-22T17:35:10.755Z,95685.51
2018-03-22T17:37:38.386Z,95685.05
2018-03-22T17:40:05.906Z,95678.78
2018-03-22T17:42:33.577Z,95683.74
2018-03-22T17:45:01.146Z,95678.33
2018-03-22T17:47:28.876Z,95678.77
2018-03-22T17:49:56.703Z,95675.89
2018-03-22T17:52:24.261Z,95677.44
2018-03-22T17:54:51.843Z,95681.32
2018-03-22T17:57:19.395Z,95680.58
2018-03-22T17:59:46.937Z,95682.78
2018-03-22T18:02:14.495Z,95684.26
2018-03-22T18:04:42.060Z,95684.50
2018-03-22T18:07:09.641Z,95685.27
2018-03-22T18:09:37.177Z,95685.38
2018-03-22T18:12:04.723Z,95685.23
2018-03-22T18:14:32.274Z,95685.65
2018-03-22T18:16:59.844Z,95678.00
2018-03-22T18:19:27.395Z,95682.14
2018-03-22T18:21:54.939Z,95676.59
2018-03-22T18:24:22.496Z,95667.13
2018-03-22T18:26:50.063Z,95664.19
2018-03-22T18:29:17.611Z,95667.88
2018-03-22T18:31:45.167Z,95664.55
2018-03-22T18:34:12.665Z,95665.67
2018-03-22T18:36:40.199Z,95669.02
2018-03-22T18:39:07.740Z,95659.03
2018-03-22T18:41:35.309Z,95666.62
2018-03-22T18:44:02.902Z,95660.30
2018-03-22T18:46:30.408Z,95665.88
2018-03-22T18:48:57.972Z,95660.89
2018-03-22T18:51:25.533Z,95649.05
2018-03-22T18:53:53.081Z,95654.52
2018-03-22T18:56:20.636Z,95650.88
2018-03-22T18:58:48.178Z,95652.56
2018-03-22T19:01:15.799Z,95652.12
2018-03-22T19:03:43.346Z,95646.05
2018-03-22T19:06:11.274Z,95653.33
2018-03-22T19:08:38.832Z,95651.69
2018-03-22T19:11:06.369Z,95653.38
2018-03-22T19:13:33.929Z,95649.86
2018-03-22T19:16:01.503Z,95648.47
2018-03-22T19:18:29.090Z,95654.39
2018-03-22T19:20:56.585Z,95651.72
2018-03-22T19:23:24.129Z,95651.84
2018-03-22T19:25:51.696Z,95655.78
2018-03-22T19:28:19.263Z,95650.84
2018-03-22T19:30:46.758Z,95646.20
2018-03-22T19:33:14.270Z,95645.79
2018-03-22T19:35:41.830Z,95642.84
2018-03-22T19:38:09.386Z,95645.70
2018-03-22T19:40:36.962Z,95647.67
2018-03-22T19:43:04.505Z,95646.38
2018-03-22T19:45:32.047Z,95650.70
2018-03-22T19:47:59.609Z,95649.02
2018-03-22T19:50:27.168Z,95642.93
2018-03-22T19:52:54.771Z,95640.19
2018-03-22T19:55:22.320Z,95644.14
2018-03-22T19:57:49.868Z,95641.78
2018-03-22T20:00:17.448Z,95642.52
2018-03-22T20:02:45.039Z,95639.64
2018-03-22T20:05:12.619Z,95640.08
2018-03-22T20:07:40.149Z,95624.95
2018-03-22T20:10:07.691Z,95626.93
2018-03-22T20:12:35.280Z,95643.26
2018-03-22T20:15:02.835Z,95635.02
2018-03-22T20:17:30.444Z,95636.41
2018-03-22T20:19:58.004Z,95637.75
2018-03-22T20:22:25.538Z,95641.63
2018-03-22T20:24:53.070Z,95635.52
2018-03-22T20:27:20.622Z,95636.78
2018-03-22T20:29:48.200Z,95635.16
2018-03-22T20:32:15.748Z,95629.62
2018-03-22T20:34:43.355Z,95630.80
2018-03-22T20:37:10.913Z,95634.75
2018-03-22T20:39:38.497Z,95630.80
2018-03-22T20:42:06.046Z,95626.42
2018-03-22T20:44:33.546Z,95624.63
2018-03-22T20:47:01.102Z,95620.42
2018-03-22T20:49:28.648Z,95620.48
2018-03-22T20:51:56.245Z,95620.55
2018-03-22T20:54:23.796Z,95610.72
2018-03-22T20:56:52.271Z,95613.80
2018-03-22T20:59:19.879Z,95615.54
2018-03-22T21:01:47.473Z,95617.09
2018-03-22T21:04:15.404Z,95612.01
2018-03-22T21:06:42.984Z,95608.30
2018-03-22T21:09:10.543Z,95608.95
2018-03-22T21:11:38.108Z,95603.33
2018-03-22T21:14:05.661Z,95602.21
2018-03-22T21:16:33.257Z,95609.26
2018-03-22T21:19:00.814Z,95602.22
2018-03-22T21:21:28.428Z,95603.69
2018-03-22T21:23:56.004Z,95598.05
2018-03-22T21:26:23.577Z,95597.08
2018-03-22T21:28:51.139Z,95594.48
2018-03-22T21:31:18.698Z,95597.06
2018-03-22T21:33:46.326Z,95594.25
2018-03-22T21:36:14.007Z,95586.47
2018-03-22T21:38:41.556Z,95591.56
2018-03-22T21:41:09.119Z,95596.09
2018-03-22T21:43:36.874Z,95596.70
2018-03-22T21:46:04.493Z,95601.34
2018-03-22T21:48:32.053Z,95591.84
2018-03-22T21:51:01.361Z,95587.50
2018-03-22T21:53:28.908Z,95581.70
2018-03-22T21:55:56.479Z,95583.67
2018-03-22T21:58:24.054Z,95585.18
2018-03-22T22:00:51.728Z,95583.92
2018-03-22T22:03:19.508Z,95576.27
2018-03-22T22:05:47.213Z,95573.00
2018-03-22T22:08:15.010Z,95576.55
2018-03-22T22:10:42.574Z,95571.06
2018-03-22T22:13:10.605Z,95573.26
2018-03-22T22:15:38.176Z,95572.98
2018-03-22T22:18:05.835Z,95552.33
2018-03-22T22:20:33.409Z,95569.33
2018-03-22T22:23:00.980Z,95561.33
2018-03-22T22:25:28.748Z,95559.30
2018-03-22T22:27:56.316Z,95555.23
2018-03-22T22:30:23.882Z,95552.32
2018-03-22T22:32:51.479Z,95550.76
2018-03-22T22:35:19.421Z,95545.91
2018-03-22T22:37:47.116Z,95542.64
2018-03-22T22:40:14.827Z,95539.88
2018-03-22T22:42:42.395Z,95532.23
2018-03-22T22:45:11.038Z,95527.98
2018-03-22T22:47:38.606Z,95526.75
2018-03-22T22:50:06.186Z,95522.19
2018-03-22T22:52:33.763Z,95518.43
2018-03-22T22:55:01.334Z,95516.48
2018-03-22T22:57:28.950Z,95513.91
2018-03-22T22:59:56.526Z,95515.66
2018-03-22T23:02:24.116Z,95509.08
2018-03-22T23:04:56.528Z,95510.61
2018-03-22T23:07:25.683Z,95500.09
2018-03-22T23:09:53.268Z,95505.67
2018-03-22T23:12:20.892Z,95505.38
2018-03-22T23:14:48.449Z,95504.11
2018-03-22T23:17:18.692Z,95496.21
2018-03-22T23:19:47.576Z,95497.26
2018-03-22T23:22:15.436Z,95495.45
2018-03-22T23:24:43.273Z,95493.78
2018-03-22T23:27:11.936Z,95485.68
2018-03-22T23:29:39.554Z,95492.62
2018-03-22T23:32:07.292Z,95483.30
2018-03-22T23:34:35.077Z,95477.95
2018-03-22T23:37:04.762Z,95477.19
2018-03-22T23:39:37.556Z,95470.34
2018-03-22T23:42:05.459Z,95471.42
2018-03-22T23:44:33.332Z,95469.31
2018-03-22T23:47:03.442Z,95459.31
2018-03-22T23:49:31.089Z,95459.50
2018-03-22T23:51:58.686Z,95461.04
2018-03-22T23:54:31.981Z,95457.11
2018-03-22T23:57:00.008Z,95459.38
2018-03-22T23:59:27.576Z,95452.86
